createdAt,value
2023-04-16T00:00:08.449Z,25.00
2023-04-16T00:00:18.520Z,25.00
2023-04-16T00:00:28.549Z,25.00
2023-04-16T00:00:38.573Z,25.90
2023-04-16T00:00:48.610Z,24.90
2023-04-16T00:00:58.650Z,25.80
2023-04-16T00:01:08.695Z,25.90
2023-04-16T00:01:18.721Z,26.70
2023-04-16T00:01:28.758Z,26.00
2023-04-16T00:01:38.806Z,26.00
2023-04-16T00:01:48.906Z,26.00
2023-04-16T00:01:59.055Z,26.20
2023-04-16T00:02:09.112Z,25.90
2023-04-16T00:02:19.257Z,26.00
2023-04-16T00:02:29.274Z,26.10
2023-04-16T00:02:39.614Z,26.40
2023-04-16T00:02:49.496Z,25.70
2023-04-16T00:02:59.825Z,25.00
2023-04-16T00:03:09.886Z,24.40
2023-04-16T00:03:20.189Z,24.60
2023-04-16T00:03:30.108Z,23.60
2023-04-16T00:03:40.380Z,23.70
2023-04-16T00:03:50.481Z,23.80
2023-04-16T00:04:00.522Z,24.60
2023-04-16T00:04:10.521Z,24.50
2023-04-16T00:04:20.475Z,24.70
2023-04-16T00:04:30.645Z,24.10
2023-04-16T00:04:40.759Z,24.40
2023-04-16T00:04:50.708Z,24.80
2023-04-16T00:05:00.790Z,26.10
2023-04-16T00:05:10.844Z,26.90
2023-04-16T00:05:20.829Z,26.30
2023-04-16T00:05:30.867Z,25.60
2023-04-16T00:05:40.876Z,25.00
2023-04-16T00:05:50.905Z,25.90
2023-04-16T00:06:00.943Z,25.80
2023-04-16T00:06:10.965Z,26.10
2023-04-16T00:06:20.996Z,25.40
2023-04-16T00:06:31.024Z,25.80
2023-04-16T00:06:41.080Z,26.10
2023-04-16T00:06:51.145Z,26.40
2023-04-16T00:07:01.142Z,25.90
2023-04-16T00:07:11.180Z,24.40
2023-04-16T00:07:21.197Z,24.60
2023-04-16T00:07:31.222Z,24.50
2023-04-16T00:07:41.240Z,25.30
2023-04-16T00:07:51.307Z,25.40
2023-04-16T00:08:01.424Z,25.40
2023-04-16T00:08:11.470Z,25.70
2023-04-16T00:08:21.486Z,25.10
2023-04-16T00:08:31.498Z,24.70
2023-04-16T00:08:41.519Z,24.90
2023-04-16T00:08:51.606Z,25.30
2023-04-16T00:09:01.648Z,25.60
2023-04-16T00:09:11.783Z,25.60
2023-04-16T00:09:21.836Z,25.50
2023-04-16T00:09:31.873Z,25.90
2023-04-16T00:09:41.917Z,26.10
2023-04-16T00:09:51.968Z,26.40
2023-04-16T00:10:02.016Z,25.80
2023-04-16T00:10:12.050Z,25.80
2023-04-16T00:10:22.078Z,26.10
2023-04-16T00:10:32.141Z,26.50
2023-04-16T00:10:42.180Z,26.40
2023-04-16T00:10:52.209Z,25.80
2023-04-16T00:11:02.351Z,26.10
2023-04-16T00:11:12.389Z,25.70
2023-04-16T00:11:22.513Z,24.80
2023-04-16T00:11:32.631Z,24.80
2023-04-16T00:11:42.670Z,25.50
2023-04-16T00:11:52.698Z,26.80
2023-04-16T00:12:02.723Z,26.80
2023-04-16T00:12:12.766Z,26.40
2023-04-16T00:12:22.795Z,26.10
2023-04-16T00:12:32.825Z,25.50
2023-04-16T00:12:42.860Z,25.30
2023-04-16T00:12:52.893Z,25.30
2023-04-16T00:13:02.921Z,26.00
2023-04-16T00:13:12.948Z,26.20
2023-04-16T00:13:22.997Z,26.70
2023-04-16T00:13:33.038Z,26.60
2023-04-16T00:13:43.118Z,26.20
2023-04-16T00:13:53.144Z,25.80
2023-04-16T00:14:03.188Z,25.90
2023-04-16T00:14:13.216Z,25.90
2023-04-16T00:14:23.250Z,26.20
2023-04-16T00:14:33.305Z,25.60
2023-04-16T00:14:43.349Z,26.00
2023-04-16T00:14:53.384Z,25.60
2023-04-16T00:15:03.440Z,25.70
2023-04-16T00:15:13.499Z,26.30
2023-04-16T00:15:23.554Z,27.30
2023-04-16T00:15:33.596Z,27.40
2023-04-16T00:15:43.630Z,26.70
2023-04-16T00:15:53.764Z,26.20
2023-04-16T00:16:03.830Z,25.90
2023-04-16T00:16:13.900Z,26.20
2023-04-16T00:16:23.945Z,25.80
2023-04-16T00:16:33.994Z,25.50
2023-04-16T00:16:44.067Z,25.20
2023-04-16T00:16:54.177Z,25.00
2023-04-16T00:17:04.290Z,25.60
2023-04-16T00:17:14.313Z,25.70
2023-04-16T00:17:24.359Z,25.30
2023-04-16T00:17:34.387Z,25.20
2023-04-16T00:17:44.452Z,25.00
2023-04-16T00:17:54.503Z,26.30
2023-04-16T00:18:04.546Z,26.10
2023-04-16T00:18:14.586Z,26.40
2023-04-16T00:18:24.605Z,25.80
2023-04-16T00:18:34.648Z,25.90
2023-04-16T00:18:44.705Z,25.60
2023-04-16T00:18:54.757Z,25.10
2023-04-16T00:19:04.792Z,24.90
2023-04-16T00:19:14.825Z,25.10
2023-04-16T00:19:24.882Z,25.20
2023-04-16T00:19:34.969Z,24.80
2023-04-16T00:19:45.101Z,25.60
2023-04-16T00:19:55.107Z,25.30
2023-04-16T00:20:05.192Z,25.70
2023-04-16T00:20:15.275Z,24.40
2023-04-16T00:20:25.323Z,24.90
2023-04-16T00:20:35.373Z,24.80
2023-04-16T00:20:45.445Z,24.90
2023-04-16T00:20:55.509Z,24.20
2023-04-16T00:21:05.543Z,24.20
2023-04-16T00:21:15.675Z,24.80
2023-04-16T00:21:25.775Z,26.20
2023-04-16T00:21:35.828Z,26.20
2023-04-16T00:21:45.907Z,25.90
2023-04-16T00:21:55.928Z,25.50
2023-04-16T00:22:05.947Z,26.20
2023-04-16T00:22:15.980Z,26.90
2023-04-16T00:22:26.031Z,26.80
2023-04-16T00:22:36.064Z,26.60
2023-04-16T00:22:46.102Z,26.60
2023-04-16T00:22:56.287Z,26.30
2023-04-16T00:23:06.333Z,26.70
2023-04-16T00:23:16.346Z,26.70
2023-04-16T00:23:26.409Z,27.40
2023-04-16T00:23:36.424Z,27.20
2023-04-16T00:23:46.501Z,27.30
2023-04-16T00:23:56.554Z,27.30
2023-04-16T00:24:06.578Z,27.40
2023-04-16T00:24:16.602Z,26.90
2023-04-16T00:24:26.650Z,26.80
2023-04-16T00:24:36.675Z,27.10
2023-04-16T00:24:46.701Z,26.90
2023-04-16T00:24:56.726Z,26.40
2023-04-16T00:25:06.775Z,26.70
2023-04-16T00:25:16.808Z,26.80
2023-04-16T00:25:26.836Z,26.60
2023-04-16T00:25:36.878Z,26.10
2023-04-16T00:25:46.926Z,26.00
2023-04-16T00:25:56.949Z,26.40
2023-04-16T00:26:07.000Z,26.50
2023-04-16T00:26:17.011Z,26.70
2023-04-16T00:26:27.033Z,26.30
2023-04-16T00:26:37.091Z,26.40
2023-04-16T00:26:47.132Z,26.10
2023-04-16T00:26:57.186Z,25.90
2023-04-16T00:27:07.245Z,25.80
2023-04-16T00:27:17.255Z,26.10
2023-04-16T00:27:27.341Z,26.30
2023-04-16T00:27:37.462Z,26.40
2023-04-16T00:27:47.485Z,26.80
2023-04-16T00:27:57.502Z,27.50
2023-04-16T00:28:08.373Z,27.70
2023-04-16T00:28:17.577Z,28.00
2023-04-16T00:28:27.626Z,27.50
2023-04-16T00:28:37.638Z,27.60
2023-04-16T00:28:47.658Z,27.60
2023-04-16T00:28:57.682Z,27.80
2023-04-16T00:29:08.036Z,27.30
2023-04-16T00:29:17.776Z,26.80
2023-04-16T00:29:27.815Z,26.90
2023-04-16T00:29:37.855Z,27.10
2023-04-16T00:29:47.885Z,27.30
2023-04-16T00:29:57.913Z,27.30
2023-04-16T00:30:07.939Z,27.10
2023-04-16T00:30:17.993Z,27.60
2023-04-16T00:30:28.011Z,27.10
2023-04-16T00:30:38.055Z,27.70
2023-04-16T00:30:48.110Z,27.20
2023-04-16T00:30:58.150Z,27.30
2023-04-16T00:31:08.210Z,26.40
2023-04-16T00:31:18.266Z,26.70
2023-04-16T00:31:28.435Z,26.60
2023-04-16T00:31:38.338Z,27.60
2023-04-16T00:31:48.371Z,26.80
2023-04-16T00:31:58.407Z,26.80
2023-04-16T00:32:08.438Z,25.50
2023-04-16T00:32:18.497Z,25.60
2023-04-16T00:32:28.544Z,25.30
2023-04-16T00:32:38.619Z,26.40
2023-04-16T00:32:48.627Z,27.70
2023-04-16T00:32:58.664Z,28.10
2023-04-16T00:33:08.680Z,28.30
2023-04-16T00:33:18.692Z,28.10
2023-04-16T00:33:28.716Z,28.40
2023-04-16T00:33:38.764Z,27.60
2023-04-16T00:33:48.806Z,26.60
2023-04-16T00:33:58.842Z,26.60
2023-04-16T00:34:08.900Z,27.20
2023-04-16T00:34:18.944Z,27.40
2023-04-16T00:34:28.980Z,27.70
2023-04-16T00:34:39.019Z,27.10
2023-04-16T00:34:49.040Z,28.10
2023-04-16T00:34:59.068Z,27.80
2023-04-16T00:35:09.114Z,28.80
2023-04-16T00:35:19.134Z,28.50
2023-04-16T00:35:29.164Z,28.40
2023-04-16T00:35:39.192Z,27.30
2023-04-16T00:35:49.225Z,27.20
2023-04-16T00:35:59.255Z,27.50
2023-04-16T00:36:09.292Z,28.10
2023-04-16T00:36:19.318Z,28.50
2023-04-16T00:36:29.332Z,27.90
2023-04-16T00:36:39.363Z,27.80
2023-04-16T00:36:49.420Z,26.80
2023-04-16T00:36:59.433Z,27.50
2023-04-16T00:37:09.459Z,27.20
2023-04-16T00:37:19.481Z,28.00
2023-04-16T00:37:29.513Z,27.60
2023-04-16T00:37:39.582Z,27.40
2023-04-16T00:37:49.605Z,26.90
2023-04-16T00:37:59.640Z,27.50
2023-04-16T00:38:09.672Z,27.90
2023-04-16T00:38:19.689Z,28.10
2023-04-16T00:38:29.734Z,26.50
2023-04-16T00:38:39.761Z,26.20
2023-04-16T00:38:49.799Z,25.40
2023-04-16T00:38:59.847Z,25.90
2023-04-16T00:39:09.989Z,26.00
2023-04-16T00:39:19.902Z,26.40
2023-04-16T00:39:29.955Z,27.30
2023-04-16T00:39:40.002Z,27.10
2023-04-16T00:39:50.026Z,27.70
2023-04-16T00:40:00.080Z,26.90
2023-04-16T00:40:10.089Z,26.80
2023-04-16T00:40:20.125Z,26.20
2023-04-16T00:40:30.170Z,26.30
2023-04-16T00:40:40.190Z,26.70
2023-04-16T00:40:50.208Z,26.80
2023-04-16T00:41:00.241Z,26.50
2023-04-16T00:41:10.262Z,26.40
2023-04-16T00:41:20.306Z,26.50
2023-04-16T00:41:30.334Z,27.00
2023-04-16T00:41:40.383Z,26.80
2023-04-16T00:41:50.422Z,26.90
2023-04-16T00:42:00.485Z,26.60
2023-04-16T00:42:10.495Z,26.70
2023-04-16T00:42:20.514Z,26.30
2023-04-16T00:42:30.555Z,26.40
2023-04-16T00:42:40.597Z,26.30
2023-04-16T00:42:50.630Z,26.60
2023-04-16T00:43:00.658Z,26.80
2023-04-16T00:43:10.685Z,26.90
2023-04-16T00:43:20.724Z,26.70
2023-04-16T00:43:30.828Z,26.30
2023-04-16T00:43:40.880Z,25.80
2023-04-16T00:43:50.911Z,26.30
2023-04-16T00:44:00.947Z,26.10
2023-04-16T00:44:10.981Z,26.80
2023-04-16T00:44:21.012Z,26.10
2023-04-16T00:44:31.079Z,26.60
2023-04-16T00:44:41.114Z,25.90
2023-04-16T00:44:51.131Z,25.50
2023-04-16T00:45:01.169Z,25.10
2023-04-16T00:45:11.182Z,25.40
2023-04-16T00:45:21.218Z,25.50
2023-04-16T00:45:31.252Z,25.50
2023-04-16T00:45:41.285Z,26.00
2023-04-16T00:45:51.334Z,26.60
2023-04-16T00:46:01.410Z,26.10
2023-04-16T00:46:11.501Z,25.90
2023-04-16T00:46:21.520Z,26.00
2023-04-16T00:46:31.545Z,26.10
2023-04-16T00:46:41.634Z,26.30
2023-04-16T00:46:51.640Z,26.90
2023-04-16T00:47:01.685Z,28.10
2023-04-16T00:47:11.747Z,28.00
2023-04-16T00:47:21.807Z,27.60
2023-04-16T00:47:31.888Z,26.60
2023-04-16T00:47:41.985Z,26.50
2023-04-16T00:47:51.997Z,25.90
2023-04-16T00:48:02.103Z,26.10
2023-04-16T00:48:12.150Z,26.10
2023-04-16T00:48:22.155Z,26.70
2023-04-16T00:48:32.172Z,27.20
2023-04-16T00:48:42.222Z,27.70
2023-04-16T00:48:52.233Z,27.10
2023-04-16T00:49:02.283Z,26.60
2023-04-16T00:49:12.336Z,26.60
2023-04-16T00:49:22.362Z,26.60
2023-04-16T00:49:32.388Z,26.90
2023-04-16T00:49:42.412Z,26.90
2023-04-16T00:49:52.441Z,27.60
2023-04-16T00:50:02.482Z,28.20
2023-04-16T00:50:12.501Z,28.30
2023-04-16T00:50:22.577Z,28.10
2023-04-16T00:50:32.568Z,27.80
2023-04-16T00:50:42.629Z,28.10
2023-04-16T00:50:52.625Z,29.00
2023-04-16T00:51:02.704Z,28.60
2023-04-16T00:51:12.682Z,28.20
2023-04-16T00:51:22.710Z,27.60
2023-04-16T00:51:32.729Z,28.50
2023-04-16T00:51:42.793Z,29.00
2023-04-16T00:51:52.820Z,28.70
2023-04-16T00:52:02.856Z,28.20
2023-04-16T00:52:12.922Z,27.80
2023-04-16T00:52:22.953Z,27.80
2023-04-16T00:52:32.995Z,28.10
2023-04-16T00:52:43.004Z,28.00
2023-04-16T00:52:53.035Z,26.80
2023-04-16T00:53:03.048Z,26.40
2023-04-16T00:53:13.074Z,26.50
2023-04-16T00:53:23.116Z,27.00
2023-04-16T00:53:33.142Z,26.90
2023-04-16T00:53:43.176Z,26.60
2023-04-16T00:53:53.198Z,26.20
2023-04-16T00:54:03.228Z,26.10
2023-04-16T00:54:13.277Z,26.30
2023-04-16T00:54:23.293Z,27.00
2023-04-16T00:54:33.313Z,26.80
2023-04-16T00:54:43.349Z,26.40
2023-04-16T00:54:53.381Z,26.70
2023-04-16T00:55:03.401Z,26.60
2023-04-16T00:55:13.464Z,26.80
2023-04-16T00:55:23.484Z,27.40
2023-04-16T00:55:33.511Z,27.80
2023-04-16T00:55:43.529Z,27.80
2023-04-16T00:55:53.567Z,26.90
2023-04-16T00:56:03.604Z,27.00
2023-04-16T00:56:13.623Z,27.10
2023-04-16T00:56:23.639Z,27.80
2023-04-16T00:56:33.672Z,27.50
2023-04-16T00:56:43.685Z,27.20
2023-04-16T00:56:53.732Z,26.40
2023-04-16T00:57:03.755Z,27.20
2023-04-16T00:57:13.770Z,27.70
2023-04-16T00:57:23.815Z,28.20
2023-04-16T00:57:33.835Z,27.50
2023-04-16T00:57:43.850Z,26.60
2023-04-16T00:57:53.897Z,26.40
2023-04-16T00:58:03.914Z,26.30
2023-04-16T00:58:13.956Z,26.50
2023-04-16T00:58:23.960Z,26.90
2023-04-16T00:58:34.000Z,26.70
2023-04-16T00:58:44.042Z,27.20
2023-04-16T00:58:54.052Z,26.70
2023-04-16T00:59:04.104Z,27.50
2023-04-16T00:59:14.142Z,27.80
2023-04-16T00:59:24.168Z,28.00
2023-04-16T00:59:34.200Z,27.40
2023-04-16T00:59:44.223Z,27.20
2023-04-16T00:59:54.267Z,27.40
2023-04-16T01:00:04.281Z,27.80
2023-04-16T01:00:14.339Z,27.70
2023-04-16T01:00:24.379Z,27.20
2023-04-16T01:00:34.415Z,27.00
2023-04-16T01:00:44.451Z,27.00
2023-04-16T01:00:54.489Z,27.00
2023-04-16T01:01:04.544Z,27.10
2023-04-16T01:01:14.707Z,27.60
2023-04-16T01:01:24.718Z,28.40
2023-04-16T01:01:34.790Z,28.10
2023-04-16T01:01:44.836Z,27.20
2023-04-16T01:01:54.897Z,27.10
2023-04-16T01:02:04.987Z,27.10
2023-04-16T01:02:15.091Z,28.00
2023-04-16T01:02:25.269Z,28.00
2023-04-16T01:02:35.462Z,28.00
2023-04-16T01:02:45.456Z,27.40
2023-04-16T01:02:55.623Z,27.90
2023-04-16T01:03:05.750Z,28.90
2023-04-16T01:03:15.966Z,28.90
2023-04-16T01:03:25.975Z,28.60
2023-04-16T01:03:35.995Z,27.70
2023-04-16T01:03:46.122Z,28.50
2023-04-16T01:03:56.121Z,28.50
2023-04-16T01:04:06.237Z,29.00
2023-04-16T01:04:16.411Z,29.30
2023-04-16T01:04:26.366Z,29.40
2023-04-16T01:04:36.536Z,28.80
2023-04-16T01:04:46.434Z,28.00
2023-04-16T01:04:56.460Z,27.50
2023-04-16T01:05:06.526Z,27.50
2023-04-16T01:05:16.553Z,27.60
2023-04-16T01:05:26.604Z,27.80
2023-04-16T01:05:36.625Z,27.70
2023-04-16T01:05:46.632Z,27.90
2023-04-16T01:05:56.658Z,28.40
2023-04-16T01:06:06.683Z,28.70
2023-04-16T01:06:16.692Z,29.10
2023-04-16T01:06:26.721Z,28.70
2023-04-16T01:06:36.738Z,28.30
2023-04-16T01:06:46.783Z,28.40
2023-04-16T01:06:56.845Z,28.70
2023-04-16T01:07:06.871Z,28.70
2023-04-16T01:07:16.909Z,28.20
2023-04-16T01:07:26.927Z,28.00
2023-04-16T01:07:36.932Z,27.70
2023-04-16T01:07:46.959Z,27.60
2023-04-16T01:07:56.992Z,27.80
2023-04-16T01:08:07.017Z,27.80
2023-04-16T01:08:17.046Z,28.30
2023-04-16T01:08:27.055Z,28.40
2023-04-16T01:08:37.089Z,28.40
2023-04-16T01:08:47.107Z,28.70
2023-04-16T01:08:57.174Z,28.00
2023-04-16T01:09:07.228Z,27.90
2023-04-16T01:09:17.321Z,27.50
2023-04-16T01:09:27.349Z,28.00
2023-04-16T01:09:37.388Z,28.30
2023-04-16T01:09:47.409Z,27.90
2023-04-16T01:09:57.440Z,27.60
2023-04-16T01:10:07.470Z,27.90
2023-04-16T01:10:17.512Z,29.00
2023-04-16T01:10:27.547Z,28.70
2023-04-16T01:10:37.563Z,29.20
2023-04-16T01:10:47.584Z,28.40
2023-04-16T01:10:57.600Z,28.80
2023-04-16T01:11:07.595Z,27.50
2023-04-16T01:11:17.662Z,27.30
2023-04-16T01:11:27.626Z,27.40
2023-04-16T01:11:37.802Z,27.70
2023-04-16T01:11:47.851Z,27.70
2023-04-16T01:11:57.869Z,28.30
2023-04-16T01:12:07.903Z,28.20
2023-04-16T01:12:17.908Z,28.00
2023-04-16T01:12:28.072Z,27.00
2023-04-16T01:12:38.086Z,28.30
2023-04-16T01:12:48.256Z,29.10
2023-04-16T01:12:58.442Z,29.40
2023-04-16T01:13:08.454Z,28.80
2023-04-16T01:13:18.639Z,28.00
2023-04-16T01:13:28.638Z,27.80
2023-04-16T01:13:38.643Z,27.40
2023-04-16T01:13:48.659Z,27.90
2023-04-16T01:13:58.686Z,29.10
2023-04-16T01:14:08.692Z,29.90
2023-04-16T01:14:18.742Z,30.10
2023-04-16T01:14:28.746Z,29.40
2023-04-16T01:14:38.781Z,29.00
2023-04-16T01:14:48.803Z,29.00
2023-04-16T01:14:58.830Z,28.90
2023-04-16T01:15:08.876Z,28.40
2023-04-16T01:15:18.918Z,28.40
2023-04-16T01:15:28.937Z,29.50
2023-04-16T01:15:39.015Z,29.90
2023-04-16T01:15:49.014Z,29.40
2023-04-16T01:15:59.093Z,29.10
2023-04-16T01:16:09.273Z,28.90
2023-04-16T01:16:19.241Z,28.90
2023-04-16T01:16:29.264Z,28.00
2023-04-16T01:16:39.246Z,27.60
2023-04-16T01:16:49.282Z,27.90
2023-04-16T01:16:59.304Z,28.50
2023-04-16T01:17:09.323Z,29.00
2023-04-16T01:17:19.342Z,29.00
2023-04-16T01:17:29.388Z,28.90
2023-04-16T01:17:39.400Z,29.00
2023-04-16T01:17:49.435Z,28.60
2023-04-16T01:17:59.482Z,27.80
2023-04-16T01:18:09.481Z,27.10
2023-04-16T01:18:19.504Z,27.70
2023-04-16T01:18:29.552Z,28.50
2023-04-16T01:18:39.561Z,29.30
2023-04-16T01:18:49.629Z,28.50
2023-04-16T01:18:59.693Z,28.20
2023-04-16T01:19:09.934Z,27.90
2023-04-16T01:19:19.878Z,28.10
2023-04-16T01:19:29.900Z,28.00
2023-04-16T01:19:39.915Z,28.20
2023-04-16T01:19:49.948Z,28.40
2023-04-16T01:19:59.962Z,28.80
2023-04-16T01:20:10.007Z,28.70
2023-04-16T01:20:20.035Z,28.70
2023-04-16T01:20:30.063Z,28.50
2023-04-16T01:20:40.084Z,27.80
2023-04-16T01:20:50.121Z,27.60
2023-04-16T01:21:00.138Z,27.60
2023-04-16T01:21:10.163Z,28.70
2023-04-16T01:21:20.181Z,28.50
2023-04-16T01:21:30.209Z,28.50
2023-04-16T01:21:40.238Z,27.20
2023-04-16T01:21:50.269Z,27.90
2023-04-16T01:22:00.301Z,28.20
2023-04-16T01:22:10.317Z,28.70
2023-04-16T01:22:20.341Z,27.90
2023-04-16T01:22:30.362Z,27.60
2023-04-16T01:22:40.381Z,27.50
2023-04-16T01:22:50.403Z,27.30
2023-04-16T01:23:00.450Z,27.90
2023-04-16T01:23:10.477Z,28.30
2023-04-16T01:23:20.527Z,29.50
2023-04-16T01:23:30.554Z,28.30
2023-04-16T01:23:40.577Z,28.20
2023-04-16T01:23:50.592Z,27.00
2023-04-16T01:24:00.595Z,27.30
2023-04-16T01:24:10.618Z,28.10
2023-04-16T01:24:20.660Z,28.60
2023-04-16T01:24:30.676Z,29.70
2023-04-16T01:24:40.700Z,28.90
2023-04-16T01:24:50.715Z,29.10
2023-04-16T01:25:00.744Z,28.40
2023-04-16T01:25:10.779Z,28.30
2023-04-16T01:25:20.799Z,27.80
2023-04-16T01:25:30.807Z,27.50
2023-04-16T01:25:40.819Z,27.60
2023-04-16T01:25:50.849Z,27.20
2023-04-16T01:26:00.885Z,26.80
2023-04-16T01:26:10.934Z,26.90
2023-04-16T01:26:20.940Z,28.00
2023-04-16T01:26:30.977Z,28.80
2023-04-16T01:26:41.002Z,29.50
2023-04-16T01:26:51.030Z,29.40
2023-04-16T01:27:01.058Z,29.10
2023-04-16T01:27:11.127Z,28.80
2023-04-16T01:27:21.255Z,27.70
2023-04-16T01:27:31.323Z,28.00
2023-04-16T01:27:41.354Z,27.40
2023-04-16T01:27:51.380Z,27.90
2023-04-16T01:28:01.425Z,27.50
2023-04-16T01:28:11.443Z,28.10
2023-04-16T01:28:21.491Z,28.20
2023-04-16T01:28:31.536Z,28.20
2023-04-16T01:28:41.565Z,28.10
2023-04-16T01:28:51.588Z,28.50
2023-04-16T01:29:01.620Z,28.70
2023-04-16T01:29:11.646Z,28.90
2023-04-16T01:29:21.676Z,28.30
2023-04-16T01:29:31.716Z,28.30
2023-04-16T01:29:41.731Z,28.60
2023-04-16T01:29:51.760Z,28.90
2023-04-16T01:30:01.793Z,28.80
2023-04-16T01:30:11.812Z,28.20
2023-04-16T01:30:21.844Z,28.00
2023-04-16T01:30:31.871Z,27.80
2023-04-16T01:30:41.911Z,28.60
2023-04-16T01:30:51.922Z,28.80
2023-04-16T01:31:02.020Z,29.10
2023-04-16T01:31:12.038Z,28.40
2023-04-16T01:31:22.075Z,29.00
2023-04-16T01:31:32.124Z,29.40
2023-04-16T01:31:42.192Z,29.60
2023-04-16T01:31:52.275Z,29.20
2023-04-16T01:32:02.259Z,29.10
2023-04-16T01:32:12.287Z,29.10
2023-04-16T01:32:22.343Z,28.80
2023-04-16T01:32:32.448Z,27.60
2023-04-16T01:33:19.683Z,28.40
2023-04-16T01:33:29.727Z,29.50
2023-04-16T01:33:39.760Z,30.80
2023-04-16T01:33:49.792Z,31.50
2023-04-16T01:33:59.809Z,31.80
2023-04-16T01:34:09.815Z,30.20
2023-04-16T01:34:19.834Z,29.60
2023-04-16T01:34:29.861Z,29.10
2023-04-16T01:34:39.891Z,29.40
2023-04-16T01:34:49.915Z,29.20
2023-04-16T01:34:59.937Z,29.30
2023-04-16T01:35:09.954Z,28.50
2023-04-16T01:35:19.991Z,28.30
2023-04-16T01:35:30.026Z,27.90
2023-04-16T01:35:40.054Z,27.80
2023-04-16T01:35:50.240Z,27.70
2023-04-16T01:36:00.396Z,27.00
2023-04-16T01:36:10.438Z,27.50
2023-04-16T01:36:20.413Z,28.30
2023-04-16T01:36:30.585Z,28.50
2023-04-16T01:36:40.594Z,28.50
2023-04-16T01:36:50.599Z,27.90
2023-04-16T01:37:00.597Z,28.00
2023-04-16T01:37:10.613Z,28.30
2023-04-16T01:37:20.622Z,29.30
2023-04-16T01:37:30.632Z,29.20
2023-04-16T01:37:40.785Z,28.70
2023-04-16T01:37:50.956Z,28.00
2023-04-16T01:38:00.966Z,28.20
2023-04-16T01:38:10.979Z,28.20
2023-04-16T01:38:20.972Z,27.40
2023-04-16T01:38:31.150Z,27.30
2023-04-16T01:38:41.166Z,27.30
2023-04-16T01:38:51.196Z,27.90
2023-04-16T01:39:01.219Z,27.40
2023-04-16T01:39:11.375Z,27.90
2023-04-16T01:39:21.399Z,27.60
2023-04-16T01:39:31.460Z,27.60
2023-04-16T01:39:41.504Z,27.40
2023-04-16T01:39:51.554Z,27.30
2023-04-16T01:40:01.597Z,27.80
2023-04-16T01:40:11.625Z,27.80
2023-04-16T01:40:21.656Z,27.70
2023-04-16T01:40:31.689Z,27.60
2023-04-16T01:40:41.698Z,27.60
2023-04-16T01:40:51.731Z,28.90
2023-04-16T01:41:01.752Z,29.30
2023-04-16T01:41:11.781Z,30.00
2023-04-16T01:41:21.810Z,28.90
2023-04-16T01:41:31.832Z,27.80
2023-04-16T01:41:41.853Z,27.50
2023-04-16T01:41:51.946Z,27.80
2023-04-16T01:42:01.983Z,28.20
2023-04-16T01:42:12.025Z,28.00
2023-04-16T01:42:22.030Z,29.30
2023-04-16T01:42:32.099Z,29.60
2023-04-16T01:42:42.137Z,29.50
2023-04-16T01:42:52.138Z,28.80
2023-04-16T01:43:02.188Z,29.60
2023-04-16T01:43:12.205Z,30.70
2023-04-16T01:43:22.233Z,30.40
2023-04-16T01:43:32.270Z,29.80
2023-04-16T01:43:42.307Z,29.20
2023-04-16T01:43:52.325Z,29.60
2023-04-16T01:44:02.352Z,29.20
2023-04-16T01:44:12.372Z,28.70
2023-04-16T01:44:22.408Z,28.30
2023-04-16T01:44:32.422Z,28.60
2023-04-16T01:44:42.481Z,29.00
2023-04-16T01:44:52.513Z,28.20
2023-04-16T01:45:02.539Z,29.00
2023-04-16T01:45:12.589Z,28.80
2023-04-16T01:45:22.595Z,29.80
2023-04-16T01:45:32.604Z,29.20
2023-04-16T01:45:42.640Z,29.00
2023-04-16T01:45:52.655Z,28.80
2023-04-16T01:46:02.734Z,28.20
2023-04-16T01:46:12.804Z,28.40
2023-04-16T01:46:22.814Z,28.70
2023-04-16T01:46:32.818Z,29.50
2023-04-16T01:46:42.913Z,30.40
2023-04-16T01:46:52.975Z,30.00
2023-04-16T01:47:03.156Z,29.40
2023-04-16T01:47:13.016Z,27.70
2023-04-16T01:47:23.054Z,28.00
2023-04-16T01:47:33.110Z,28.30
2023-04-16T01:47:43.184Z,29.10
2023-04-16T01:47:53.213Z,28.00
2023-04-16T01:48:03.219Z,27.50
2023-04-16T01:48:13.258Z,28.00
2023-04-16T01:48:23.285Z,29.00
2023-04-16T01:48:33.316Z,28.50
2023-04-16T01:48:43.354Z,27.70
2023-04-16T01:48:53.367Z,28.00
2023-04-16T01:49:03.399Z,28.00
2023-04-16T01:49:13.422Z,27.90
2023-04-16T01:49:23.433Z,27.40
2023-04-16T01:49:33.480Z,28.40
2023-04-16T01:49:43.508Z,28.10
2023-04-16T01:49:53.543Z,27.80
2023-04-16T01:50:03.554Z,27.70
2023-04-16T01:50:13.586Z,28.20
2023-04-16T01:50:23.648Z,28.30
2023-04-16T01:50:33.677Z,28.60
2023-04-16T01:50:43.692Z,28.60
2023-04-16T01:50:53.780Z,29.20
2023-04-16T01:51:03.815Z,28.10
2023-04-16T01:51:13.837Z,28.60
2023-04-16T01:51:23.875Z,28.60
2023-04-16T01:51:33.899Z,29.10
2023-04-16T01:51:43.933Z,29.20
2023-04-16T01:51:53.953Z,28.80
2023-04-16T01:52:04.023Z,29.40
2023-04-16T01:52:14.043Z,29.20
2023-04-16T01:52:24.073Z,29.20
2023-04-16T01:52:34.105Z,28.50
2023-04-16T01:52:44.238Z,28.60
2023-04-16T01:52:54.271Z,27.80
2023-04-16T01:53:04.308Z,27.60
2023-04-16T01:53:14.342Z,27.40
2023-04-16T01:53:24.360Z,28.70
2023-04-16T01:53:36.577Z,28.70
2023-04-16T01:53:44.513Z,29.10
2023-04-16T01:53:54.554Z,28.10
2023-04-16T01:54:04.584Z,28.40
2023-04-16T01:54:14.614Z,28.60
2023-04-16T01:54:24.652Z,28.90
2023-04-16T01:54:34.696Z,28.70
2023-04-16T01:54:44.735Z,28.00
2023-04-16T01:54:54.775Z,28.30
2023-04-16T01:55:04.804Z,28.40
2023-04-16T01:55:14.834Z,27.80
2023-04-16T01:55:24.861Z,28.80
2023-04-16T01:55:34.971Z,29.40
2023-04-16T01:55:44.994Z,30.10
2023-04-16T01:55:54.992Z,28.90
2023-04-16T01:56:05.038Z,28.50
2023-04-16T01:56:15.070Z,28.20
2023-04-16T01:56:25.089Z,28.50
2023-04-16T01:56:35.125Z,28.40
2023-04-16T01:56:45.166Z,29.00
2023-04-16T01:56:55.188Z,28.90
2023-04-16T01:57:05.230Z,29.30
2023-04-16T01:57:15.269Z,27.90
2023-04-16T01:57:25.277Z,27.90
2023-04-16T01:57:35.339Z,27.20
2023-04-16T01:57:45.367Z,27.90
2023-04-16T01:57:55.385Z,27.90
2023-04-16T01:58:05.422Z,28.40
2023-04-16T01:58:15.453Z,27.80
2023-04-16T01:58:25.487Z,28.00
2023-04-16T01:58:35.513Z,28.00
2023-04-16T01:58:45.532Z,29.00
2023-04-16T01:58:55.608Z,28.80
2023-04-16T01:59:05.630Z,29.40
2023-04-16T01:59:15.673Z,28.50
2023-04-16T01:59:25.686Z,28.90
2023-04-16T01:59:35.710Z,28.00
2023-04-16T01:59:45.732Z,28.20
2023-04-16T01:59:55.765Z,27.90
2023-04-16T02:00:05.806Z,27.60
2023-04-16T02:00:15.835Z,27.80
2023-04-16T02:00:25.880Z,27.20
2023-04-16T02:00:35.946Z,27.40
2023-04-16T02:00:45.972Z,27.20
2023-04-16T02:00:56.029Z,27.60
2023-04-16T02:01:06.120Z,27.70
2023-04-16T02:01:16.197Z,27.20
2023-04-16T02:01:26.310Z,26.40
2023-04-16T02:01:36.212Z,27.40
2023-04-16T02:01:46.255Z,27.70
2023-04-16T02:01:56.323Z,28.40
2023-04-16T02:02:06.458Z,27.80
2023-04-16T02:02:16.608Z,28.00
2023-04-16T02:02:26.631Z,27.80
2023-04-16T02:02:36.672Z,27.80
2023-04-16T02:02:46.736Z,27.90
2023-04-16T02:02:56.730Z,27.80
2023-04-16T02:03:06.888Z,27.80
2023-04-16T02:03:16.827Z,28.60
2023-04-16T02:03:27.052Z,28.10
2023-04-16T02:03:37.148Z,28.90
2023-04-16T02:03:47.193Z,28.40
2023-04-16T02:03:57.337Z,28.80
2023-04-16T02:04:07.228Z,28.50
2023-04-16T02:04:17.275Z,28.90
2023-04-16T02:04:27.405Z,29.70
2023-04-16T02:04:37.416Z,29.20
2023-04-16T02:04:47.436Z,29.30
2023-04-16T02:04:57.454Z,29.20
2023-04-16T02:05:07.484Z,29.70
2023-04-16T02:05:17.534Z,30.00
2023-04-16T02:05:27.557Z,29.50
2023-04-16T02:05:37.597Z,29.10
2023-04-16T02:05:47.625Z,28.00
2023-04-16T02:05:57.651Z,27.30
2023-04-16T02:06:07.682Z,27.80
2023-04-16T02:06:17.702Z,28.00
2023-04-16T02:06:27.733Z,28.60
2023-04-16T02:06:37.752Z,28.60
2023-04-16T02:06:47.762Z,28.70
2023-04-16T02:06:57.825Z,28.50
2023-04-16T02:07:07.861Z,28.60
2023-04-16T02:07:17.880Z,29.20
2023-04-16T02:07:27.914Z,30.00
2023-04-16T02:07:37.944Z,29.50
2023-04-16T02:07:47.973Z,29.30
2023-04-16T02:07:58.025Z,29.40
2023-04-16T02:08:08.080Z,29.80
2023-04-16T02:08:18.104Z,29.80
2023-04-16T02:08:28.129Z,29.50
2023-04-16T02:08:38.157Z,29.40
2023-04-16T02:08:48.177Z,29.90
2023-04-16T02:08:58.235Z,29.60
2023-04-16T02:09:08.542Z,30.00
2023-04-16T02:09:18.330Z,29.30
2023-04-16T02:09:28.364Z,28.90
2023-04-16T02:09:38.392Z,28.10
2023-04-16T02:09:48.396Z,28.40
2023-04-16T02:09:58.422Z,28.80